• Join FlightAware (Why Join?)
  • Login
  • US Flag 
11:25AM EDT


 

Airport Tracker/Info


-or-


 

Live Flight TrackerFlight Track Log ✈ UAL690 ✈ 21-Apr-2013 ✈ KSFO - KDEN

Flight Track Log - Related Links

Times and Time Zones

All times are in EDT time to prevent confusion due to time zone crossing. See the UAL690 flight status page for this flight to view local times or setup timezone preferences in your user account.

Time Position Orientation Groundspeed Altitude Reporting Facility
EDT Latitude Longitude Course Direction KTS MPH feet Rate Location/Type
08:45AM 37.6333 -122.3500 57° Northeast 169 194 1,100  Level Northern Cal TRACON
08:46AM 37.6500 -122.3000 67° East 207 238 3,700 2,700 Climbing Northern Cal TRACON
08:47AM 37.6639 -122.2525 70° East 214 246 5,200 2,580 Climbing Oakland Center
08:48AM 37.9610 -122.3281 58° Northeast  Level FlightAware Approximate
08:48AM 37.6528 -122.1681 99° East 243 280 8,000  Level Oakland Center
08:49AM 38.0346 -122.1980 53° Northeast  Level FlightAware Approximate
08:49AM 37.7064 -122.1083 41° Northeast 262 302 10,300  Level Oakland Center
08:50AM 38.1112 -122.0703 53° Northeast  Level FlightAware Approximate
08:50AM 37.7775 -122.0533 31° Northeast 293 337 12,100  Level Oakland Center
08:51AM 38.1926 -121.9481 57° Northeast  Level FlightAware Approximate
08:51AM 37.8625 -121.9911 30° Northeast 346 398 14,400  Level Oakland Center
08:52AM 37.9489 -121.9247 31° Northeast 361 415 17,000 2,520 Climbing Oakland Center
08:53AM 38.0311 -121.8417 38° Northeast 385 443 19,500 2,220 Climbing Oakland Center
08:54AM 38.0669 -121.7083 71° East 401 461 21,500 1,920 Climbing Oakland Center
08:55AM 38.0978 -121.5667 74° East 414 476 23,400 1,860 Climbing Oakland Center
08:56AM 38.1292 -121.4264 74° East 425 489 25,300 1,800 Climbing Oakland Center
08:57AM 38.1642 -121.2794 73° East 433 498 27,000 1,500 Climbing Oakland Center
08:58AM 38.1997 -121.1278 73° East 445 512 28,300 1,260 Climbing Oakland Center
08:59AM 38.2439 -120.9392 73° East 463 533 29,600 1,560 Climbing Oakland Center
09:00AM 38.2819 -120.7778 73° East 475 547 31,500 1,680 Climbing Oakland Center
09:01AM 38.3192 -120.6167 74° East 478 550 33,000 1,500 Climbing Oakland Center
09:02AM 38.3550 -120.4572 74° East 474 545 34,600 1,440 Climbing Oakland Center
09:03AM 38.3903 -120.2989 74° East 470 541 35,900 1,200 Climbing Oakland Center
09:04AM 38.4258 -120.1394 74° East 468 539 37,000 540 Climbing Oakland Center
09:05AM 38.4633 -119.9800 73° East 469 540 37,000  Level Oakland Center
09:06AM 38.4994 -119.8200 74° East 469 540 37,000  Level Oakland Center
09:07AM 38.5306 -119.6750 75° East 469 540 37,000  Level Oakland Center
09:08AM 38.5664 -119.5142 74° East 473 544 37,000  Level Oakland Center
09:09AM 38.5997 -119.3514 75° East 474 545 37,000  Level Oakland Center
09:10AM 38.6364 -119.1903 74° East 474 545 37,000  Level Oakland Center
09:11AM 38.6714 -119.0256 75° East 480 552 37,000  Level Oakland Center
09:12AM 38.7064 -118.8631 75° East 479 551 37,000  Level Oakland Center
09:13AM 38.7411 -118.6972 75° East 484 557 37,000  Level Oakland Center
09:14AM 38.7814 -118.5003 75° East 482 555 37,000  Level Oakland Center
09:15AM 38.8161 -118.3350 75° East 482 555 37,000  Level Oakland Center
09:16AM 38.8506 -118.1700 75° East 483 556 37,000  Level Oakland Center
09:17AM 38.8839 -118.0031 76° East 486 559 37,000  Level Oakland Center
09:18AM 38.9186 -117.8356 75° East 487 560 37,000  Level Oakland Center
09:19AM 38.9522 -117.6681 75° East 487 560 37,000  Level Oakland Center
09:20AM 38.9856 -117.4997 76° East 489 563 37,000  Level Oakland Center
09:21AM 39.0192 -117.3294 76° East 491 565 37,000  Level Oakland Center
09:22AM 39.0517 -117.1608 76° East 489 563 37,000  Level Oakland Center
09:23AM 39.0825 -117.0011 76° East 489 563 37,000  Level Oakland Center
09:24AM 39.1147 -116.8311 76° East 488 562 37,000  Level Oakland Center
09:24AM 39.1286 -116.7589 76° East 491 565 37,000  Level Salt Lake Center
09:25AM 39.1594 -116.5942 76° East 494 568 37,000  Level Salt Lake Center
09:26AM 39.1911 -116.4322 76° East 490 564 37,000  Level Salt Lake Center
09:27AM 39.2264 -116.2408 77° East 492 566 37,000  Level Salt Lake Center
09:28AM 39.2578 -116.0753 76° East 493 567 37,000  Level Salt Lake Center
09:29AM 39.2931 -115.8831 77° East 496 571 37,000  Level Salt Lake Center
09:30AM 39.3228 -115.7181 77° East 496 571 37,000  Level Salt Lake Center
09:31AM 39.3536 -115.5500 77° East 500 575 37,000  Level Salt Lake Center
09:32AM 39.3883 -115.3542 77° East 501 577 37,000  Level Salt Lake Center
09:33AM 39.4161 -115.1886 78° East 497 572 37,000  Level Salt Lake Center
09:34AM 39.4392 -115.0169 80° East 502 578 37,000  Level Salt Lake Center
09:35AM 39.4628 -114.8200 81° East 498 573 37,000  Level Salt Lake Center
09:36AM 39.4825 -114.6503 81° East 498 573 37,000  Level Salt Lake Center
09:37AM 39.5014 -114.4817 82° East 496 571 37,000  Level Salt Lake Center
09:38AM 39.5222 -114.3039 81° East 488 562 37,000  Level Salt Lake Center
09:39AM 39.5406 -114.1303 82° East 487 560 37,000  Level Salt Lake Center
09:40AM 39.5603 -113.9589 81° East 482 555 37,000  Level Salt Lake Center
09:41AM 39.5786 -113.7875 82° East 481 554 37,000  Level Salt Lake Center
09:42AM 39.5975 -113.6178 82° East 479 551 37,000  Level Salt Lake Center
09:43AM 39.6156 -113.4467 82° East 479 551 37,000  Level Salt Lake Center
09:44AM 39.6331 -113.2761 82° East 478 550 37,000  Level Salt Lake Center
09:45AM 39.6514 -113.1036 82° East 482 555 37,000  Level Salt Lake Center
09:46AM 39.6725 -112.8950 82° East 485 558 37,000  Level Salt Lake Center
09:47AM 39.6914 -112.7222 82° East 486 559 37,000  Level Salt Lake Center
09:48AM 39.7078 -112.5611 82° East 485 558 37,000  Level Salt Lake Center
09:49AM 39.7233 -112.3869 83° East 488 562 37,000  Level Salt Lake Center
09:50AM 39.7408 -112.2128 83° East 489 563 37,000  Level Salt Lake Center
09:51AM 39.7564 -112.0386 83° East 489 563 37,000  Level Salt Lake Center
09:52AM 39.7733 -111.8639 83° East 490 564 37,000  Level Salt Lake Center
09:54AM 39.7933 -111.6547 83° East 489 563 37,000  Level Salt Lake Center
09:55AM 39.8067 -111.5017 83° East 488 562 37,000  Level Salt Lake Center
09:56AM 39.8236 -111.3050 84° East 491 565 37,000  Level Salt Lake Center
09:57AM 39.8381 -111.1367 84° East 491 565 37,000  Level Salt Lake Center
09:58AM 39.8525 -110.9669 84° East 493 567 37,000  Level Salt Lake Center
09:59AM 39.8686 -110.7686 84° East 493 567 37,000  Level Salt Lake Center
10:00AM 39.8814 -110.5981 84° East 494 568 37,000  Level Salt Lake Center
10:01AM 39.8981 -110.3972 84° East 499 574 37,000  Level Salt Lake Center
10:02AM 39.9111 -110.2253 84° East 499 574 37,000  Level Salt Lake Center
10:03AM 39.9247 -110.0519 84° East 502 578 37,000  Level Salt Lake Center
10:04AM 39.9403 -109.8469 84° East 507 583 37,000  Level Salt Lake Center
10:05AM 39.9522 -109.6731 85° East 506 582 37,000  Level Salt Lake Center
10:05AM 39.9633 -109.5250 84° East 506 582 37,000  Level Denver Center
10:07AM 39.9750 -109.3478 85° East 509 586 37,000  Level Denver Center
10:08AM 39.9919 -109.1128 85° East 507 583 37,000  Level Denver Center
10:09AM 40.0036 -108.9347 85° East 510 587 37,000  Level Denver Center
10:10AM 40.0172 -108.7272 85° East 510 587 37,000  Level Denver Center
10:11AM 40.0292 -108.5475 85° East 514 592 37,000  Level Denver Center
10:12AM 40.0403 -108.3711 85° East 509 586 37,000  Level Denver Center
10:13AM 40.0536 -108.1653 85° East 508 585 37,000  Level Denver Center
10:14AM 40.1000 -108.0061 69° East 491 565 37,000  Level Denver Center
10:15AM 40.1686 -107.8658 57° Northeast 480 552 37,000 -240 Level Denver Center
10:16AM 40.2486 -107.7022 57° Northeast 477 549 36,600 -660 Descending Denver Center
10:17AM 40.3050 -107.5489 64° Northeast 489 563 35,700 -840 Descending Denver Center
10:18AM 40.3286 -107.3489 81° East 498 573 35,000 -360 Descending Denver Center
10:19AM 40.3450 -107.1778 83° East 496 571 35,000  Level Denver Center
10:20AM 40.3603 -107.0072 83° East 492 566 35,000 -720 Level Denver Center
10:21AM 40.3778 -106.8125 83° East 485 558 33,600 -1,920 Descending Denver Center
10:22AM 40.3939 -106.6281 83° East 500 575 31,100 -2,280 Descending Denver Center
10:23AM 40.4086 -106.4381 84° East 490 564 29,000 -1,920 Descending Denver Center
10:24AM 40.4228 -106.2753 83° East 471 542 27,200 -1,920 Descending Denver Center
10:25AM 40.4367 -106.0969 84° East 449 517 25,100 -1,980 Descending Denver Center
10:26AM 40.4353 -105.9386 91° East 432 497 23,200 -1,860 Descending Denver Center
10:27AM 40.4128 -105.7872 101° East 421 484 21,300 -1,620 Descending Denver Center
10:28AM 40.3894 -105.6428 102° East 405 466 19,900 -1,560 Descending Denver Center
10:29AM 40.3678 -105.5061 102° East 383 441 18,100 -1,380 Descending Denver Center
10:30AM 40.3483 -105.3700 101° East 353 406 17,100 -1,260 Descending Denver Center
10:31AM 40.3317 -105.2492 100° East 336 387 15,600 -1,200 Descending Denver Center
10:32AM 40.3156 -105.1336 100° East 323 372 14,700 -780 Descending Denver Center
10:33AM 40.2997 -105.0228 101° East 286 329 14,100 -960 Descending Denver Center
10:34AM 40.2861 -104.9286 101° East 266 306 12,800 -1,200 Descending Denver Center
10:35AM 40.2603 -104.8319 109° East 274 315 11,700 -1,140 Descending Denver Center
10:36AM 40.1972 -104.7919 154° Southeast 258 297 10,500 -1,020 Descending Denver Center
10:38AM 40.1367 -104.7539 154° Southeast 243 280 9,700 -960 Descending Denver Center
10:39AM 40.0783 -104.7175 154° Southeast 217 250 8,600 -1,080 Descending Denver Center